Time;durP1;ratioP1;P1;durP2;ratioP2;P2;SDS_P1;SDS_P2;PMS_P1;PMS_P2;Temp;Humidity;BMP_temperature;BMP_pressure;BME280_temperature;BME280_humidity;BME280_pressure;Samples;Min_cycle;Max_cycle;Signal;HPM_P1;HPM_P2
2022/03/24 00:00:00;;;;;;;73.55;30.67;;;5.30;78.10;;;;;;4933987;29;20044;-71
2022/03/24 00:02:27;;;;;;;68.22;29.73;;;5.30;78.20;;;;;;4932696;29;20059;-70
2022/03/24 00:04:55;;;;;;;68.03;29.05;;;5.30;78.30;;;;;;4915434;29;20062;-70
2022/03/24 00:07:23;;;;;;;71.45;29.52;;;5.30;78.30;;;;;;4915560;29;20047;-70
2022/03/24 00:09:51;;;;;;;59.83;27.05;;;5.30;78.30;;;;;;4932425;29;20056;-70
2022/03/24 00:12:19;;;;;;;68.10;28.40;;;5.30;78.40;;;;;;4932279;29;20067;-70
2022/03/24 00:14:47;;;;;;;49.65;24.83;;;5.30;78.40;;;;;;4916069;29;20494;-71
2022/03/24 00:17:15;;;;;;;53.97;26.00;;;5.30;78.40;;;;;;4933386;29;20056;-71
2022/03/24 00:19:42;;;;;;;47.97;23.60;;;5.30;78.50;;;;;;4937815;29;20493;-70
2022/03/24 00:22:10;;;;;;;47.85;22.75;;;5.30;78.50;;;;;;4937945;29;20037;-70
2022/03/24 00:24:56;;;;;;;47.88;22.98;;;5.30;78.40;;;;;;4937381;29;20055;-70
2022/03/24 00:27:24;;;;;;;51.13;27.02;;;5.30;78.60;;;;;;4937711;29;20045;-70
2022/03/24 00:29:52;;;;;;;72.78;31.40;;;5.30;78.50;;;;;;4937676;29;20521;-70
2022/03/24 00:32:19;;;;;;;77.07;33.08;;;5.30;78.60;;;;;;4935541;29;20055;-70
2022/03/24 00:34:47;;;;;;;77.18;32.92;;;5.20;79.00;;;;;;4937127;29;20051;-70
2022/03/24 00:37:15;;;;;;;78.45;33.88;;;5.20;79.10;;;;;;4937182;29;20047;-71
2022/03/24 00:39:42;;;;;;;79.45;32.47;;;5.10;79.20;;;;;;4937442;29;20067;-71
2022/03/24 00:42:11;;;;;;;78.80;33.30;;;5.00;79.40;;;;;;4935266;29;20048;-71
2022/03/24 00:44:42;;;;;;;79.60;34.30;;;5.00;79.40;;;;;;4917674;29;20056;-71
2022/03/24 00:47:13;;;;;;;69.35;33.30;;;5.00;79.50;;;;;;4901830;29;20502;-70
2022/03/24 00:49:42;;;;;;;67.88;31.30;;;5.00;79.60;;;;;;4901610;29;20052;-71
2022/03/24 00:52:11;;;;;;;70.88;31.52;;;5.00;79.70;;;;;;4917751;29;20525;-71
2022/03/24 00:54:39;;;;;;;72.25;32.25;;;5.00;79.70;;;;;;4918327;29;20509;-71
2022/03/24 00:57:07;;;;;;;86.15;34.28;;;5.00;79.80;;;;;;4900510;29;20076;-71
2022/03/24 00:59:37;;;;;;;84.38;33.97;;;4.90;79.80;;;;;;4900929;29;20059;-70
2022/03/24 01:02:09;;;;;;;76.50;32.80;;;4.90;79.90;;;;;;4917970;29;20059;-70
2022/03/24 01:04:38;;;;;;;;;;;4.90;80.00;;;;;;4915313;29;20043;-70
2022/03/24 01:07:06;;;;;;;63.67;32.22;;;4.90;80.00;;;;;;4936825;29;19930;-71
2022/03/24 01:09:34;;;;;;;56.90;30.23;;;4.90;79.80;;;;;;4936875;29;20044;-71
2022/03/24 01:12:28;;;;;;;59.53;30.95;;;4.90;79.80;;;;;;4920107;29;20449;-71
2022/03/24 01:15:56;;;;;;;75.22;34.03;;;4.90;80.00;;;;;;4853724;29;20073;-70
2022/03/24 01:19:21;;;;;;;77.65;34.95;;;4.90;79.80;;;;;;4837477;29;20054;-71
2022/03/24 01:22:34;;;;;;;84.20;36.05;;;4.80;80.10;;;;;;4841288;29;20070;-71
2022/03/24 01:25:04;;;;;;;70.03;33.03;;;4.80;80.10;;;;;;4804781;29;20058;-72
2022/03/24 01:27:38;;;;;;;63.60;31.95;;;4.80;80.10;;;;;;4825774;29;20049;-70
2022/03/24 01:30:10;;;;;;;68.97;30.35;;;4.70;80.10;;;;;;4839512;29;20054;-70
2022/03/24 01:32:41;;;;;;;73.13;31.98;;;4.80;80.30;;;;;;4860060;29;20067;-70
2022/03/24 01:35:09;;;;;;;62.17;31.45;;;4.70;80.30;;;;;;4898196;29;20388;-70
2022/03/24 01:37:38;;;;;;;77.57;33.53;;;4.60;80.50;;;;;;4899015;29;20059;-70
2022/03/24 01:40:07;;;;;;;86.07;38.08;;;4.60;80.70;;;;;;4915907;29;20388;-70
2022/03/24 01:42:36;;;;;;;78.05;33.97;;;4.50;80.90;;;;;;4921942;29;20044;-70
2022/03/24 01:45:05;;;;;;;78.28;35.40;;;4.50;81.00;;;;;;4918272;29;20413;-70
2022/03/24 01:47:34;;;;;;;74.63;32.17;;;4.50;81.10;;;;;;4936446;29;20047;-70
2022/03/24 01:50:04;;;;;;;86.90;35.60;;;4.50;81.20;;;;;;4936116;29;20071;-70
2022/03/24 01:52:32;;;;;;;82.55;35.13;;;4.50;81.20;;;;;;4936316;29;20047;-70
2022/03/24 01:55:01;;;;;;;75.10;33.70;;;4.50;81.20;;;;;;4903494;29;20055;-70
2022/03/24 01:57:30;;;;;;;83.53;36.58;;;4.40;81.30;;;;;;4934969;29;20055;-70
2022/03/24 01:59:59;;;;;;;96.30;39.55;;;4.40;81.60;;;;;;4917172;29;20048;-70
2022/03/24 02:02:27;;;;;;;108.85;41.17;;;4.30;81.70;;;;;;4916355;29;20052;-70
2022/03/24 02:04:55;;;;;;;99.07;41.20;;;4.30;81.90;;;;;;4933841;29;20063;-70
2022/03/24 02:07:32;;;;;;;94.32;39.00;;;4.30;82.00;;;;;;4887197;29;20052;-70
2022/03/24 02:10:01;;;;;;;84.63;36.83;;;4.30;82.00;;;;;;4917125;29;20047;-70
2022/03/24 02:12:29;;;;;;;85.88;38.72;;;4.20;82.20;;;;;;4934145;29;20055;-70
2022/03/24 02:14:59;;;;;;;85.78;36.65;;;4.10;82.30;;;;;;4918103;29;20056;-70
2022/03/24 02:17:30;;;;;;;91.57;38.80;;;4.00;82.40;;;;;;4935010;29;20058;-70
2022/03/24 02:19:58;;;;;;;90.53;38.22;;;4.00;82.60;;;;;;4934552;29;20051;-70
2022/03/24 02:22:27;;;;;;;92.78;38.22;;;4.00;82.70;;;;;;4934749;29;20051;-70
2022/03/24 02:24:55;;;;;;;99.18;37.60;;;4.00;82.80;;;;;;4935697;29;20055;-70
2022/03/24 02:27:23;;;;;;;88.43;37.33;;;3.90;82.80;;;;;;4935761;29;20061;-69
2022/03/24 02:29:51;;;;;;;80.90;36.30;;;3.90;82.90;;;;;;4935880;29;20052;-70
2022/03/24 02:32:21;;;;;;;88.40;38.40;;;3.80;83.00;;;;;;4935598;29;20044;-70
2022/03/24 02:34:49;;;;;;;99.95;38.63;;;3.80;83.10;;;;;;4935628;29;20044;-70
2022/03/24 02:37:19;;;;;;;89.10;39.13;;;3.70;83.20;;;;;;4935355;29;20051;-70
2022/03/24 02:39:53;;;;;;;86.32;39.35;;;3.70;83.30;;;;;;4915813;29;20654;-69
2022/03/24 02:42:23;;;;;;;87.00;39.17;;;3.70;83.50;;;;;;4916355;29;20052;-70
2022/03/24 02:45:10;;;;;;;88.57;40.05;;;3.70;83.50;;;;;;4916589;29;20048;-70
2022/03/24 02:47:39;;;;;;;88.82;38.03;;;3.70;83.50;;;;;;4916326;29;20044;-70
2022/03/24 02:50:09;;;;;;;87.25;36.33;;;3.60;83.50;;;;;;4916321;29;20047;-70
2022/03/24 02:52:37;;;;;;;85.72;37.92;;;3.50;83.60;;;;;;4915947;29;20059;-70
2022/03/24 02:55:05;;;;;;;86.88;36.58;;;3.50;83.70;;;;;;4916415;29;20398;-70
2022/03/24 02:57:33;;;;;;;87.05;37.42;;;3.50;83.80;;;;;;4915829;29;20071;-70
2022/03/24 03:00:01;;;;;;;98.47;40.85;;;3.40;83.80;;;;;;4916084;29;20048;-70
2022/03/24 03:02:29;;;;;;;98.57;39.50;;;3.40;83.90;;;;;;4916330;29;20056;-70
2022/03/24 03:04:57;;;;;;;90.88;38.58;;;3.40;83.90;;;;;;4915859;29;20541;-70
2022/03/24 03:07:25;;;;;;;99.60;40.78;;;3.40;83.90;;;;;;4897986;29;20056;-70
2022/03/24 03:09:52;;;;;;;93.75;41.03;;;3.30;84.00;;;;;;4915867;29;20049;-70
2022/03/24 03:12:20;;;;;;;104.15;40.10;;;3.30;84.10;;;;;;4915579;29;20064;-70
2022/03/24 03:14:48;;;;;;;102.95;40.28;;;3.30;84.20;;;;;;4915841;29;20047;-70
2022/03/24 03:17:16;;;;;;;95.57;38.35;;;3.30;84.30;;;;;;4915609;29;20067;-70
2022/03/24 03:19:45;;;;;;;92.10;38.58;;;3.30;84.30;;;;;;4915915;29;20410;-70
2022/03/24 03:22:16;;;;;;;120.47;44.30;;;3.20;84.40;;;;;;4915504;29;20643;-71
2022/03/24 03:24:45;;;;;;;104.88;41.15;;;3.20;84.50;;;;;;4915056;29;20044;-70
2022/03/24 03:27:14;;;;;;;91.57;38.35;;;3.10;84.60;;;;;;4913160;29;20064;-70
2022/03/24 03:29:42;;;;;;;104.90;40.70;;;3.10;84.60;;;;;;4913298;29;20494;-70
2022/03/24 03:32:11;;;;;;;101.88;40.25;;;3.00;84.70;;;;;;4913527;29;20055;-71
2022/03/24 03:34:41;;;;;;;99.03;40.63;;;3.00;84.80;;;;;;4913935;29;20503;-69
2022/03/24 03:37:09;;;;;;;102.47;38.90;;;2.90;84.90;;;;;;4913786;29;20056;-69
2022/03/24 03:39:37;;;;;;;98.38;38.25;;;2.90;84.90;;;;;;4931799;29;20059;-69
2022/03/24 03:42:05;;;;;;;98.22;38.75;;;2.80;84.90;;;;;;4916575;29;20686;-69
2022/03/24 03:44:34;;;;;;;102.75;43.85;;;2.80;85.00;;;;;;4917472;29;20051;-69
2022/03/24 03:47:02;;;;;;;127.43;45.38;;;2.80;85.00;;;;;;4934633;29;20054;-69
2022/03/24 03:49:29;;;;;;;120.57;45.60;;;2.80;85.00;;;;;;4917362;29;20513;-69
2022/03/24 03:52:17;;;;;;;114.60;43.80;;;2.80;85.00;;;;;;4934655;29;20498;-69
2022/03/24 03:54:45;;;;;;;116.50;44.25;;;2.90;85.00;;;;;;4938003;29;20058;-69
2022/03/24 03:57:12;;;;;;;104.15;42.25;;;2.80;85.00;;;;;;4938240;29;20059;-69
2022/03/24 03:59:40;;;;;;;122.72;44.10;;;2.80;85.00;;;;;;4938351;29;20047;-69
2022/03/24 04:02:07;;;;;;;102.05;42.10;;;2.80;85.20;;;;;;4921336;29;20051;-69
2022/03/24 04:04:35;;;;;;;103.55;41.20;;;2.70;85.30;;;;;;4937932;29;20048;-69
2022/03/24 04:07:03;;;;;;;110.05;45.25;;;2.60;85.40;;;;;;4937149;29;20494;-70
2022/03/24 04:09:31;;;;;;;107.07;41.53;;;2.60;85.50;;;;;;4937918;29;20044;-69
2022/03/24 04:11:58;;;;;;;123.63;44.45;;;2.60;85.50;;;;;;4937861;29;20074;-70
2022/03/24 04:14:26;;;;;;;120.80;46.15;;;2.60;85.50;;;;;;4938139;29;20398;-70
2022/03/24 04:16:57;;;;;;;130.88;46.15;;;2.60;85.60;;;;;;4937323;29;20052;-70
2022/03/24 04:19:26;;;;;;;123.97;45.50;;;2.60;85.60;;;;;;4905260;29;20059;-70
2022/03/24 04:21:53;;;;;;;119.00;43.63;;;2.50;85.60;;;;;;4937658;29;20059;-70
2022/03/24 04:24:21;;;;;;;110.88;42.00;;;2.50;85.70;;;;;;4937471;29;20059;-69
2022/03/24 04:26:49;;;;;;;121.30;45.25;;;2.40;85.80;;;;;;4937848;29;20052;-70
2022/03/24 04:29:16;;;;;;;103.45;42.28;;;2.40;85.90;;;;;;4920423;29;20546;-69
2022/03/24 04:31:44;;;;;;;108.10;44.80;;;2.40;86.00;;;;;;4937023;29;20066;-69
2022/03/24 04:34:12;;;;;;;129.93;47.95;;;2.30;86.00;;;;;;4937573;29;20054;-69
2022/03/24 04:36:40;;;;;;;133.10;46.58;;;2.30;86.10;;;;;;4910999;29;20055;-70
2022/03/24 04:39:08;;;;;;;120.25;45.50;;;2.30;86.20;;;;;;4936976;29;20091;-70
2022/03/24 04:41:35;;;;;;;112.45;41.72;;;2.30;86.20;;;;;;4937396;29;20043;-68
2022/03/24 04:44:03;;;;;;;124.57;46.53;;;2.30;86.20;;;;;;4904832;29;20055;-70
2022/03/24 04:46:31;;;;;;;119.35;46.17;;;2.30;86.20;;;;;;4904938;29;20493;-69
2022/03/24 04:48:59;;;;;;;104.03;41.17;;;2.20;86.20;;;;;;4937071;29;20048;-69
2022/03/24 04:51:26;;;;;;;101.65;40.15;;;2.20;86.30;;;;;;4919649;29;20482;-69
2022/03/24 04:53:54;;;;;;;126.93;45.25;;;2.10;86.40;;;;;;4918476;29;20490;-70
2022/03/24 04:56:21;;;;;;;109.68;44.17;;;2.10;86.40;;;;;;4915321;29;20048;-69
2022/03/24 04:58:49;;;;;;;121.22;46.50;;;2.10;86.50;;;;;;4924699;29;20062;-69
2022/03/24 05:01:16;;;;;;;110.57;42.20;;;2.00;86.60;;;;;;4936543;29;20449;-70
2022/03/24 05:03:46;;;;;;;125.47;45.28;;;2.00;86.60;;;;;;4934940;29;20048;-69
2022/03/24 05:06:15;;;;;;;106.30;44.40;;;2.00;86.60;;;;;;4937069;29;20047;-69
2022/03/24 05:08:43;;;;;;;108.50;44.40;;;2.00;86.60;;;;;;4936946;29;20055;-69
2022/03/24 05:11:11;;;;;;;105.47;42.88;;;1.90;86.60;;;;;;4936985;29;20054;-69
2022/03/24 05:13:39;;;;;;;99.03;42.10;;;1.90;86.70;;;;;;4937034;29;20043;-69
2022/03/24 05:16:06;;;;;;;99.43;41.05;;;1.90;86.70;;;;;;4936788;29;20047;-69
2022/03/24 05:18:36;;;;;;;123.28;46.58;;;1.80;86.70;;;;;;4935101;29;20052;-70
2022/03/24 05:21:04;;;;;;;121.47;47.63;;;1.90;86.90;;;;;;4933739;29;20058;-69
2022/03/24 05:23:32;;;;;;;136.05;49.90;;;1.90;86.90;;;;;;4934305;29;20062;-69
2022/03/24 05:25:59;;;;;;;144.30;49.35;;;2.00;86.90;;;;;;4935110;29;20052;-68
2022/03/24 05:28:27;;;;;;;144.60;49.83;;;2.00;86.90;;;;;;4918066;29;20500;-68
2022/03/24 05:30:54;;;;;;;150.02;50.95;;;2.00;86.80;;;;;;4934600;29;20044;-69
2022/03/24 05:33:22;;;;;;;139.80;48.58;;;2.10;86.80;;;;;;4933680;29;20052;-69
2022/03/24 05:35:50;;;;;;;127.88;48.92;;;2.00;86.80;;;;;;4934945;29;20052;-69
2022/03/24 05:38:18;;;;;;;136.20;48.97;;;2.00;86.90;;;;;;4935790;29;20074;-70
2022/03/24 05:40:45;;;;;;;124.38;45.63;;;1.90;87.00;;;;;;4919589;29;20402;-70
2022/03/24 05:43:13;;;;;;;124.20;43.58;;;1.90;87.00;;;;;;4935489;29;20059;-69
2022/03/24 05:45:40;;;;;;;132.25;46.67;;;1.80;87.10;;;;;;4936270;29;20059;-69
2022/03/24 05:48:09;;;;;;;122.97;45.53;;;1.80;87.30;;;;;;4936295;29;20063;-69
2022/03/24 05:50:57;;;;;;;134.20;47.00;;;1.80;87.20;;;;;;4928967;29;20437;-69
2022/03/24 05:53:28;;;;;;;130.77;46.88;;;1.80;87.20;;;;;;4936326;29;20387;-69
2022/03/24 05:55:56;;;;;;;117.50;45.53;;;1.70;87.20;;;;;;4936143;29;20524;-69
2022/03/24 05:58:23;;;;;;;112.75;42.03;;;1.70;87.30;;;;;;4936298;29;20043;-69
2022/03/24 06:00:51;;;;;;;129.75;45.78;;;1.70;87.40;;;;;;4931907;29;20051;-70
2022/03/24 06:03:19;;;;;;;119.13;44.78;;;1.60;87.40;;;;;;4926732;29;20052;-70
2022/03/24 06:05:48;;;;;;;143.05;47.85;;;1.60;87.40;;;;;;4919241;29;20409;-69
2022/03/24 06:08:17;;;;;;;148.40;49.90;;;1.60;87.40;;;;;;4935830;29;20052;-69
2022/03/24 06:10:48;;;;;;;141.40;50.63;;;1.60;87.50;;;;;;4925147;29;20043;-69
2022/03/24 06:13:16;;;;;;;157.93;53.30;;;1.60;87.50;;;;;;4917027;29;20499;-69
2022/03/24 06:15:45;;;;;;;198.07;57.15;;;1.70;87.50;;;;;;4916389;29;20058;-69
2022/03/24 06:18:13;;;;;;;186.88;58.92;;;1.80;87.50;;;;;;4922241;29;20051;-69
2022/03/24 06:20:41;;;;;;;193.27;56.35;;;1.80;87.40;;;;;;4920654;29;20502;-70
2022/03/24 06:23:08;;;;;;;191.10;56.83;;;1.80;87.40;;;;;;4921041;29;20481;-69
2022/03/24 06:25:39;;;;;;;193.32;59.47;;;1.80;87.50;;;;;;4933878;29;20052;-68
2022/03/24 06:28:06;;;;;;;189.15;59.03;;;1.90;87.50;;;;;;4934510;29;20051;-68
2022/03/24 06:30:34;;;;;;;190.73;56.63;;;1.90;87.40;;;;;;4917686;29;20048;-68
2022/03/24 06:33:02;;;;;;;164.10;54.25;;;1.90;87.40;;;;;;4933820;29;20058;-68
2022/03/24 06:35:30;;;;;;;155.32;52.85;;;1.90;87.50;;;;;;4930929;29;20043;-68
2022/03/24 06:37:58;;;;;;;159.52;53.78;;;1.80;87.50;;;;;;4934248;29;20059;-69
2022/03/24 06:40:26;;;;;;;171.80;55.45;;;1.80;87.60;;;;;;4917803;29;20474;-69
2022/03/24 06:42:54;;;;;;;167.43;54.85;;;1.80;87.70;;;;;;4934086;29;20056;-69
2022/03/24 06:45:22;;;;;;;160.52;55.65;;;1.80;87.80;;;;;;4932245;29;20047;-69
2022/03/24 06:47:50;;;;;;;169.90;56.00;;;1.80;87.80;;;;;;4917405;29;20051;-69
2022/03/24 06:50:17;;;;;;;164.90;54.10;;;1.90;87.80;;;;;;4934664;29;20070;-69
2022/03/24 06:52:45;;;;;;;155.63;53.53;;;1.90;87.80;;;;;;4934941;29;20047;-70
2022/03/24 06:55:13;;;;;;;153.80;51.78;;;2.00;87.80;;;;;;4934192;29;20039;-70
2022/03/24 06:57:41;;;;;;;159.32;53.28;;;2.00;87.70;;;;;;4934742;29;20044;-70
2022/03/24 07:00:14;;;;;;;159.80;53.60;;;2.10;87.70;;;;;;4934056;29;20682;-70
2022/03/24 07:02:43;;;;;;;159.68;54.47;;;2.10;87.70;;;;;;4932512;29;20051;-70
2022/03/24 07:05:12;;;;;;;145.45;50.42;;;2.20;87.70;;;;;;4933206;29;20055;-70
2022/03/24 07:07:40;;;;;;;136.07;49.35;;;2.20;87.70;;;;;;4929443;29;20410;-70
2022/03/24 07:10:08;;;;;;;138.77;49.10;;;2.20;87.70;;;;;;4919938;29;20055;-70
2022/03/24 07:12:37;;;;;;;134.82;49.30;;;2.30;87.70;;;;;;4930659;29;20536;-70
2022/03/24 07:15:08;;;;;;;118.07;48.63;;;2.30;87.70;;;;;;4932831;29;20048;-70
2022/03/24 07:17:36;;;;;;;134.13;50.65;;;2.40;87.70;;;;;;4930933;29;20046;-70
2022/03/24 07:20:05;;;;;;;140.88;49.70;;;2.50;87.70;;;;;;4931669;29;20051;-70
2022/03/24 07:22:34;;;;;;;124.75;48.53;;;2.50;87.60;;;;;;4929573;29;20054;-70
2022/03/24 07:25:05;;;;;;;125.53;47.63;;;2.60;87.60;;;;;;4899775;29;20414;-69
2022/03/24 07:27:34;;;;;;;122.18;47.17;;;2.70;87.60;;;;;;4920751;29;20356;-69
2022/03/24 07:30:03;;;;;;;116.88;46.85;;;2.80;87.50;;;;;;4934100;29;20055;-69
2022/03/24 07:32:32;;;;;;;117.20;47.80;;;2.90;87.40;;;;;;4928227;29;20044;-70
2022/03/24 07:35:00;;;;;;;184.50;76.63;;;3.00;87.40;;;;;;4931912;29;20059;-71
2022/03/24 07:37:31;;;;;;;713.25;428.08;;;3.00;87.30;;;;;;4934486;29;20394;-71
2022/03/24 07:39:59;;;;;;;255.55;121.13;;;3.20;87.20;;;;;;4914302;29;20048;-71
2022/03/24 07:42:26;;;;;;;228.77;106.93;;;3.30;87.20;;;;;;4925385;29;20047;-69
2022/03/24 07:44:54;;;;;;;135.85;52.65;;;3.40;87.10;;;;;;4902701;29;20055;-70
2022/03/24 07:47:22;;;;;;;126.30;50.83;;;3.40;87.00;;;;;;4923678;29;20055;-71
2022/03/24 07:49:50;;;;;;;121.18;49.60;;;3.60;87.00;;;;;;4933097;29;20040;-70
2022/03/24 07:52:18;;;;;;;126.97;50.22;;;3.70;86.90;;;;;;4932245;29;20051;-71
2022/03/24 07:54:55;;;;;;;130.13;51.85;;;3.80;86.90;;;;;;4933622;29;20063;-71
2022/03/24 07:57:27;;;;;;;118.65;49.47;;;3.90;86.80;;;;;;4931763;29;20052;-71
2022/03/24 07:59:55;;;;;;;108.00;47.40;;;4.00;86.70;;;;;;4915878;29;20048;-71
2022/03/24 08:02:22;;;;;;;116.40;49.97;;;4.20;86.60;;;;;;4929821;29;20052;-71
2022/03/24 08:04:52;;;;;;;112.07;48.67;;;4.30;86.50;;;;;;4915366;29;20520;-71
2022/03/24 08:07:21;;;;;;;106.72;48.70;;;4.40;86.40;;;;;;4933524;29;20044;-71
2022/03/24 08:09:50;;;;;;;112.80;48.38;;;4.50;86.30;;;;;;4933646;29;20044;-71
2022/03/24 08:12:18;;;;;;;116.07;49.42;;;4.70;86.20;;;;;;4933861;29;20036;-71
2022/03/24 08:14:46;;;;;;;109.15;48.20;;;4.80;86.10;;;;;;4915838;29;20161;-71
2022/03/24 08:17:13;;;;;;;114.55;48.50;;;5.00;86.00;;;;;;4916375;29;20044;-71
2022/03/24 08:19:41;;;;;;;109.47;49.38;;;5.10;85.90;;;;;;4916707;29;20055;-71
2022/03/24 08:22:09;;;;;;;109.95;49.53;;;5.30;85.70;;;;;;4933161;29;20051;-71
2022/03/24 08:24:37;;;;;;;114.18;49.35;;;5.40;85.60;;;;;;4916124;29;20058;-71
2022/03/24 08:27:04;;;;;;;107.15;48.88;;;5.60;85.50;;;;;;4928704;29;20070;-71
2022/03/24 08:29:32;;;;;;;109.53;48.63;;;5.70;85.30;;;;;;4928922;29;20413;-70
2022/03/24 08:32:00;;;;;;;111.32;51.00;;;5.90;85.20;;;;;;4929559;29;20060;-71
2022/03/24 08:34:29;;;;;;;107.93;47.60;;;6.00;85.00;;;;;;4929533;29;20779;-71
2022/03/24 08:36:56;;;;;;;98.38;48.15;;;6.20;84.80;;;;;;4928192;29;20056;-71
2022/03/24 08:39:24;;;;;;;104.60;48.65;;;6.30;84.60;;;;;;4931704;29;20043;-71
2022/03/24 08:41:53;;;;;;;101.38;48.03;;;6.50;84.30;;;;;;4932269;29;20044;-71
2022/03/24 08:44:20;;;;;;;106.90;48.13;;;6.70;84.10;;;;;;4900107;29;20760;-71
2022/03/24 08:46:48;;;;;;;103.75;49.90;;;6.80;83.80;;;;;;4915359;29;20051;-71
2022/03/24 08:49:15;;;;;;;105.90;48.70;;;7.00;83.50;;;;;;4913959;29;20083;-71
2022/03/24 08:51:43;;;;;;;95.47;47.70;;;7.20;83.20;;;;;;4913394;29;20056;-71
2022/03/24 08:54:11;;;;;;;100.13;46.03;;;7.30;82.90;;;;;;4929658;29;20543;-71
2022/03/24 08:56:38;;;;;;;89.65;45.20;;;7.50;82.60;;;;;;4930760;29;20048;-71
2022/03/24 08:59:06;;;;;;;91.70;47.17;;;7.70;82.30;;;;;;4919281;29;20067;-71
2022/03/24 09:01:34;;;;;;;98.05;46.10;;;7.80;81.90;;;;;;4931016;29;20060;-71
2022/03/24 09:04:02;;;;;;;89.03;46.65;;;8.00;81.60;;;;;;4930656;29;20512;-71
2022/03/24 09:06:36;;;;;;;;;;;8.20;81.30;;;;;;4930571;29;20047;-71
2022/03/24 09:09:05;;;;;;;85.50;45.33;;;8.30;80.90;;;;;;4930729;29;20388;-71
2022/03/24 09:11:33;;;;;;;96.15;47.42;;;8.60;80.60;;;;;;4913097;29;20387;-75
2022/03/24 09:14:00;;;;;;;100.95;46.70;;;8.80;80.30;;;;;;4929281;29;20062;-74
2022/03/24 09:16:28;;;;;;;98.55;46.45;;;8.90;79.90;;;;;;4914006;29;20075;-71
2022/03/24 09:18:56;;;;;;;93.43;46.20;;;9.10;79.60;;;;;;4931486;29;20059;-71
2022/03/24 09:21:24;;;;;;;91.78;44.72;;;9.30;79.20;;;;;;4930437;29;20074;-71
2022/03/24 09:23:52;;;;;;;85.78;45.08;;;9.50;78.70;;;;;;4931910;29;20071;-71
2022/03/24 09:26:19;;;;;;;86.72;45.08;;;9.70;78.30;;;;;;4932018;29;20441;-71
2022/03/24 09:28:58;;;;;;;85.93;45.30;;;9.80;77.80;;;;;;4914974;29;20059;-72
2022/03/24 09:31:26;;;;;;;88.25;46.03;;;10.00;77.40;;;;;;4931731;29;20715;-71
2022/03/24 09:33:54;;;;;;;87.70;44.63;;;10.20;76.90;;;;;;4932155;29;20067;-71
2022/03/24 09:36:22;;;;;;;87.47;44.25;;;10.30;76.40;;;;;;4931486;29;20063;-71
2022/03/24 09:38:50;;;;;;;82.53;43.92;;;10.60;75.90;;;;;;4931716;29;20058;-71
2022/03/24 09:41:19;;;;;;;94.47;44.70;;;10.80;75.20;;;;;;4931612;29;20051;-71
2022/03/24 09:43:47;;;;;;;88.32;43.67;;;11.00;74.70;;;;;;4931648;29;20056;-71
2022/03/24 09:46:18;;;;;;;86.72;43.17;;;11.20;73.90;;;;;;4914052;29;20043;-70
2022/03/24 09:48:46;;;;;;;100.82;44.90;;;11.40;73.30;;;;;;4930855;29;20055;-71
2022/03/24 09:51:14;;;;;;;89.10;44.50;;;11.60;72.40;;;;;;4930193;29;20421;-70
2022/03/24 09:53:42;;;;;;;89.47;43.67;;;11.80;71.80;;;;;;4930718;29;20048;-71
2022/03/24 09:56:10;;;;;;;89.22;44.00;;;11.90;71.10;;;;;;4931773;29;20048;-71
2022/03/24 09:58:38;;;;;;;91.45;42.53;;;12.10;70.60;;;;;;4930448;29;20426;-71
2022/03/24 10:01:06;;;;;;;79.65;41.58;;;12.30;69.70;;;;;;4920345;29;20051;-70
2022/03/24 10:03:34;;;;;;;83.55;40.65;;;12.50;68.70;;;;;;4930318;29;20063;-70
2022/03/24 10:06:09;;;;;;;76.85;39.90;;;12.70;67.40;;;;;;4930152;29;20583;-71
2022/03/24 10:08:37;;;;;;;78.60;38.95;;;12.90;66.30;;;;;;4930445;29;20433;-71
2022/03/24 10:11:07;;;;;;;86.80;39.83;;;13.20;65.20;;;;;;4931315;29;20050;-71
2022/03/24 10:13:51;;;;;;;84.78;40.05;;;13.30;64.30;;;;;;4930338;29;20044;-71
2022/03/24 10:16:34;;;;;;;74.18;35.78;;;13.50;63.00;;;;;;4931072;29;20051;-70
2022/03/24 10:19:05;;;;;;;81.72;38.40;;;13.70;61.70;;;;;;4930452;29;20509;-70
2022/03/24 10:21:34;;;;;;;73.63;37.50;;;13.80;60.90;;;;;;4930221;29;20059;-70
2022/03/24 10:24:14;;;;;;;74.22;37.47;;;14.00;60.10;;;;;;4927536;29;20132;-70
2022/03/24 10:26:44;;;;;;;75.60;36.72;;;14.20;59.00;;;;;;4913597;29;20062;-70
2022/03/24 10:29:19;;;;;;;72.90;37.58;;;14.40;58.00;;;;;;4928457;29;20060;-69
2022/03/24 10:31:55;;;;;;;74.80;37.40;;;14.60;56.80;;;;;;4930110;29;20074;-70
2022/03/24 10:34:38;;;;;;;73.63;36.95;;;14.80;54.90;;;;;;4930429;29;20071;-71
2022/03/24 10:37:09;;;;;;;71.80;37.20;;;14.90;54.50;;;;;;4930462;29;20394;-70
2022/03/24 10:39:38;;;;;;;73.30;37.25;;;15.10;54.10;;;;;;4929949;29;20099;-70
2022/03/24 10:42:16;;;;;;;69.68;36.55;;;15.30;53.50;;;;;;4913078;29;20071;-70
2022/03/24 10:45:11;;;;;;;74.10;37.17;;;15.50;50.70;;;;;;4912194;29;20520;-71
2022/03/24 10:47:58;;;;;;;71.57;36.60;;;15.60;49.40;;;;;;4930587;29;20051;-71
2022/03/24 10:50:29;;;;;;;65.53;34.00;;;15.70;49.30;;;;;;4912953;29;20059;-72
2022/03/24 10:53:08;;;;;;;70.53;34.70;;;15.90;49.10;;;;;;4911884;29;20040;-72
2022/03/24 10:55:43;;;;;;;70.63;33.80;;;16.10;48.80;;;;;;4928576;29;20047;-72
2022/03/24 10:58:40;;;;;;;68.68;34.65;;;16.30;48.00;;;;;;4928692;29;20059;-70
2022/03/24 11:01:19;;;;;;;62.10;33.30;;;16.40;47.50;;;;;;4906487;29;20060;-70
2022/03/24 11:03:47;;;;;;;64.15;33.28;;;16.70;48.10;;;;;;4923027;29;20421;-71
2022/03/24 11:06:19;;;;;;;56.03;32.13;;;16.80;47.70;;;;;;4910623;29;20071;-71
2022/03/24 11:08:59;;;;;;;62.95;33.70;;;17.00;47.00;;;;;;4929014;29;20055;-70
2022/03/24 11:11:28;;;;;;;59.03;30.75;;;17.20;46.30;;;;;;4930533;29;20048;-71
2022/03/24 11:14:02;;;;;;;65.43;32.90;;;17.30;44.70;;;;;;4930327;29;20051;-71
2022/03/24 11:16:33;;;;;;;62.65;32.38;;;17.30;43.80;;;;;;4929182;29;20062;-71
2022/03/24 11:19:11;;;;;;;55.30;30.05;;;17.30;43.50;;;;;;4929354;29;20521;-71
2022/03/24 11:21:39;;;;;;;59.10;29.95;;;17.40;42.30;;;;;;4928978;29;20063;-71
2022/03/24 11:24:07;;;;;;;61.80;29.42;;;17.50;42.60;;;;;;4930851;29;20066;-71
2022/03/24 11:26:35;;;;;;;58.05;29.67;;;17.60;42.00;;;;;;4934533;29;20050;-71
2022/03/24 11:29:04;;;;;;;59.30;28.00;;;17.80;41.50;;;;;;4934546;29;20059;-71
2022/03/24 11:31:32;;;;;;;58.70;30.02;;;17.90;40.70;;;;;;4916059;29;20055;-71
2022/03/24 11:34:04;;;;;;;52.25;27.35;;;17.90;40.40;;;;;;4934128;29;20067;-70
2022/03/24 11:36:32;;;;;;;51.63;26.25;;;18.00;40.40;;;;;;4933766;29;20063;-69
2022/03/24 11:39:04;;;;;;;46.85;25.80;;;18.20;39.60;;;;;;4932752;29;20047;-72
2022/03/24 11:41:42;;;;;;;51.80;26.38;;;18.30;39.50;;;;;;4931947;29;20418;-70
2022/03/24 11:44:17;;;;;;;53.28;26.88;;;18.40;38.20;;;;;;4934289;29;20051;-70
2022/03/24 11:46:56;;;;;;;50.17;27.17;;;18.40;37.00;;;;;;4934500;29;20059;-70
2022/03/24 11:49:25;;;;;;;50.47;25.83;;;18.30;37.10;;;;;;4933631;29;20078;-71
2022/03/24 11:51:59;;;;;;;55.15;26.23;;;18.30;37.10;;;;;;4933969;29;20051;-70
2022/03/24 11:54:35;;;;;;;50.60;26.10;;;18.40;37.30;;;;;;4933034;29;20054;-70
2022/03/24 11:57:21;;;;;;;52.08;26.20;;;18.50;36.30;;;;;;4934480;29;20490;-71
2022/03/24 11:59:50;;;;;;;49.03;26.20;;;18.60;36.70;;;;;;4933650;29;20413;-70
2022/03/24 12:02:19;;;;;;;51.13;27.17;;;18.80;36.50;;;;;;4917503;29;20064;-72
2022/03/24 12:04:57;;;;;;;52.50;27.42;;;18.90;35.70;;;;;;4917117;29;20074;-70
2022/03/24 12:07:26;;;;;;;55.60;27.63;;;19.00;35.60;;;;;;4934349;29;20063;-71
2022/03/24 12:09:58;;;;;;;50.25;26.90;;;19.20;35.50;;;;;;4934463;29;20055;-71
2022/03/24 12:12:26;;;;;;;54.92;26.92;;;19.40;35.80;;;;;;4932688;29;20055;-71
2022/03/24 12:14:54;;;;;;;55.42;27.73;;;19.60;33.90;;;;;;4936757;29;20075;-71
2022/03/24 12:17:23;;;;;;;53.15;27.80;;;19.80;33.20;;;;;;4937907;29;20417;-71
2022/03/24 12:19:56;;;;;;;49.78;26.73;;;19.80;33.00;;;;;;4937941;29;20071;-71
2022/03/24 12:22:26;;;;;;;55.63;26.10;;;20.00;33.80;;;;;;4937781;29;20040;-71
2022/03/24 12:25:00;;;;;;;48.60;25.77;;;20.30;34.10;;;;;;4936939;29;20067;-71
2022/03/24 12:27:28;;;;;;;;;;;20.80;33.50;;;;;;4938286;29;20052;-71
2022/03/24 12:30:46;;;;;;;46.30;24.38;;;21.30;33.10;;;;;;4938035;29;19923;-71
2022/03/24 12:33:17;;;;;;;40.78;23.70;;;21.80;32.20;;;;;;4905871;29;20048;-71
2022/03/24 12:35:53;;;;;;;44.97;24.38;;;22.20;31.30;;;;;;4936529;29;20060;-71
2022/03/24 12:38:27;;;;;;;49.95;25.10;;;22.60;30.40;;;;;;4937385;29;20059;-71
2022/03/24 12:41:04;;;;;;;50.03;24.00;;;22.90;30.20;;;;;;4935734;29;20048;-71
2022/03/24 12:44:04;;;;;;;43.08;23.92;;;23.30;29.60;;;;;;4935622;29;20387;-71
2022/03/24 12:46:35;;;;;;;35.85;21.73;;;23.70;29.70;;;;;;4916592;29;20072;-71